sensor_id;sensor_type;location;lat;lon;timestamp;P1;durP1;ratioP1;P2;durP2;ratioP2
33563;SDS011;19894;48.452;11.494;2023-05-20T00:00:44;0.52;;;0.52;;
33563;SDS011;19894;48.452;11.494;2023-05-20T00:03:13;0.32;;;0.32;;
33563;SDS011;19894;48.452;11.494;2023-05-20T00:05:39;0.50;;;0.50;;
33563;SDS011;19894;48.452;11.494;2023-05-20T00:08:05;0.57;;;0.45;;
33563;SDS011;19894;48.452;11.494;2023-05-20T00:10:33;0.47;;;0.47;;
33563;SDS011;19894;48.452;11.494;2023-05-20T00:13:01;0.50;;;0.50;;
33563;SDS011;19894;48.452;11.494;2023-05-20T00:15:27;0.40;;;0.40;;
33563;SDS011;19894;48.452;11.494;2023-05-20T00:17:53;0.50;;;0.50;;
33563;SDS011;19894;48.452;11.494;2023-05-20T00:20:19;0.25;;;0.20;;
33563;SDS011;19894;48.452;11.494;2023-05-20T00:22:44;0.43;;;0.43;;
33563;SDS011;19894;48.452;11.494;2023-05-20T00:25:10;0.40;;;0.40;;
33563;SDS011;19894;48.452;11.494;2023-05-20T00:27:38;0.52;;;0.52;;
33563;SDS011;19894;48.452;11.494;2023-05-20T00:30:04;0.50;;;0.50;;
33563;SDS011;19894;48.452;11.494;2023-05-20T00:32:30;0.47;;;0.40;;
33563;SDS011;19894;48.452;11.494;2023-05-20T00:34:56;0.60;;;0.50;;
33563;SDS011;19894;48.452;11.494;2023-05-20T00:37:23;0.47;;;0.47;;
33563;SDS011;19894;48.452;11.494;2023-05-20T00:39:48;0.45;;;0.40;;
33563;SDS011;19894;48.452;11.494;2023-05-20T00:42:21;0.60;;;0.60;;
33563;SDS011;19894;48.452;11.494;2023-05-20T00:44:47;0.47;;;0.47;;
33563;SDS011;19894;48.452;11.494;2023-05-20T00:47:13;0.43;;;0.43;;
33563;SDS011;19894;48.452;11.494;2023-05-20T00:49:41;0.50;;;0.50;;
33563;SDS011;19894;48.452;11.494;2023-05-20T00:52:07;0.40;;;0.35;;
33563;SDS011;19894;48.452;11.494;2023-05-20T00:54:32;0.35;;;0.35;;
33563;SDS011;19894;48.452;11.494;2023-05-20T00:56:58;0.55;;;0.43;;
33563;SDS011;19894;48.452;11.494;2023-05-20T00:59:26;0.90;;;0.85;;
33563;SDS011;19894;48.452;11.494;2023-05-20T01:01:52;0.68;;;0.68;;
33563;SDS011;19894;48.452;11.494;2023-05-20T01:04:18;1.15;;;1.10;;
33563;SDS011;19894;48.452;11.494;2023-05-20T01:06:44;0.55;;;0.55;;
33563;SDS011;19894;48.452;11.494;2023-05-20T01:09:12;0.55;;;0.55;;
33563;SDS011;19894;48.452;11.494;2023-05-20T01:11:39;0.73;;;0.60;;
33563;SDS011;19894;48.452;11.494;2023-05-20T01:14:11;0.38;;;0.38;;
33563;SDS011;19894;48.452;11.494;2023-05-20T01:16:38;0.40;;;0.35;;
33563;SDS011;19894;48.452;11.494;2023-05-20T01:19:06;0.50;;;0.40;;
33563;SDS011;19894;48.452;11.494;2023-05-20T01:21:51;0.40;;;0.40;;
33563;SDS011;19894;48.452;11.494;2023-05-20T01:24:18;0.60;;;0.60;;
33563;SDS011;19894;48.452;11.494;2023-05-20T01:26:43;0.68;;;0.65;;
33563;SDS011;19894;48.452;11.494;2023-05-20T01:29:12;0.57;;;0.57;;
33563;SDS011;19894;48.452;11.494;2023-05-20T01:31:37;0.40;;;0.40;;
33563;SDS011;19894;48.452;11.494;2023-05-20T01:34:03;0.50;;;0.50;;
33563;SDS011;19894;48.452;11.494;2023-05-20T01:36:30;0.50;;;0.50;;
33563;SDS011;19894;48.452;11.494;2023-05-20T01:38:57;0.38;;;0.30;;
33563;SDS011;19894;48.452;11.494;2023-05-20T01:41:24;0.50;;;0.40;;
33563;SDS011;19894;48.452;11.494;2023-05-20T01:43:51;0.43;;;0.43;;
33563;SDS011;19894;48.452;11.494;2023-05-20T01:46:17;0.45;;;0.45;;
33563;SDS011;19894;48.452;11.494;2023-05-20T01:48:42;0.77;;;0.60;;
33563;SDS011;19894;48.452;11.494;2023-05-20T01:51:08;0.73;;;0.73;;
33563;SDS011;19894;48.452;11.494;2023-05-20T01:53:34;0.40;;;0.40;;
33563;SDS011;19894;48.452;11.494;2023-05-20T01:55:59;0.40;;;0.38;;
33563;SDS011;19894;48.452;11.494;2023-05-20T01:58:25;0.88;;;0.50;;
33563;SDS011;19894;48.452;11.494;2023-05-20T02:00:50;0.38;;;0.35;;
33563;SDS011;19894;48.452;11.494;2023-05-20T02:03:17;0.75;;;0.70;;
33563;SDS011;19894;48.452;11.494;2023-05-20T02:05:42;0.50;;;0.50;;
33563;SDS011;19894;48.452;11.494;2023-05-20T02:08:08;0.47;;;0.40;;
33563;SDS011;19894;48.452;11.494;2023-05-20T02:10:33;0.63;;;0.50;;
33563;SDS011;19894;48.452;11.494;2023-05-20T02:12:59;0.50;;;0.50;;
33563;SDS011;19894;48.452;11.494;2023-05-20T02:15:24;0.75;;;0.50;;
33563;SDS011;19894;48.452;11.494;2023-05-20T02:17:50;0.38;;;0.38;;
33563;SDS011;19894;48.452;11.494;2023-05-20T02:20:16;0.60;;;0.47;;
33563;SDS011;19894;48.452;11.494;2023-05-20T02:22:41;0.40;;;0.40;;
33563;SDS011;19894;48.452;11.494;2023-05-20T02:25:07;0.68;;;0.60;;
33563;SDS011;19894;48.452;11.494;2023-05-20T02:27:33;0.55;;;0.52;;
33563;SDS011;19894;48.452;11.494;2023-05-20T02:29:58;0.30;;;0.30;;
33563;SDS011;19894;48.452;11.494;2023-05-20T02:32:25;0.43;;;0.43;;
33563;SDS011;19894;48.452;11.494;2023-05-20T02:34:53;0.52;;;0.52;;
33563;SDS011;19894;48.452;11.494;2023-05-20T02:37:19;0.55;;;0.55;;
33563;SDS011;19894;48.452;11.494;2023-05-20T02:39:44;0.50;;;0.50;;
33563;SDS011;19894;48.452;11.494;2023-05-20T02:42:10;0.50;;;0.50;;
33563;SDS011;19894;48.452;11.494;2023-05-20T02:44:36;0.40;;;0.40;;
33563;SDS011;19894;48.452;11.494;2023-05-20T02:47:01;0.60;;;0.60;;
33563;SDS011;19894;48.452;11.494;2023-05-20T02:49:27;0.50;;;0.40;;
33563;SDS011;19894;48.452;11.494;2023-05-20T02:51:52;0.40;;;0.40;;
33563;SDS011;19894;48.452;11.494;2023-05-20T02:54:18;0.40;;;0.38;;
33563;SDS011;19894;48.452;11.494;2023-05-20T02:56:44;0.55;;;0.55;;
33563;SDS011;19894;48.452;11.494;2023-05-20T02:59:09;0.68;;;0.55;;
33563;SDS011;19894;48.452;11.494;2023-05-20T03:01:35;0.40;;;0.40;;
33563;SDS011;19894;48.452;11.494;2023-05-20T03:04:03;0.45;;;0.45;;
33563;SDS011;19894;48.452;11.494;2023-05-20T03:06:29;0.75;;;0.75;;
33563;SDS011;19894;48.452;11.494;2023-05-20T03:08:55;0.40;;;0.40;;
33563;SDS011;19894;48.452;11.494;2023-05-20T03:11:22;0.45;;;0.45;;
33563;SDS011;19894;48.452;11.494;2023-05-20T03:13:47;0.47;;;0.40;;
33563;SDS011;19894;48.452;11.494;2023-05-20T03:16:13;0.40;;;0.40;;
33563;SDS011;19894;48.452;11.494;2023-05-20T03:18:40;0.35;;;0.35;;
33563;SDS011;19894;48.452;11.494;2023-05-20T03:21:06;0.50;;;0.50;;
33563;SDS011;19894;48.452;11.494;2023-05-20T03:23:32;0.63;;;0.60;;
33563;SDS011;19894;48.452;11.494;2023-05-20T03:25:57;0.50;;;0.50;;
33563;SDS011;19894;48.452;11.494;2023-05-20T03:28:23;0.50;;;0.47;;
33563;SDS011;19894;48.452;11.494;2023-05-20T03:30:48;0.50;;;0.50;;
33563;SDS011;19894;48.452;11.494;2023-05-20T03:33:14;0.50;;;0.50;;
33563;SDS011;19894;48.452;11.494;2023-05-20T03:35:40;0.60;;;0.52;;
33563;SDS011;19894;48.452;11.494;2023-05-20T03:38:05;0.60;;;0.60;;
33563;SDS011;19894;48.452;11.494;2023-05-20T03:40:31;0.85;;;0.38;;
33563;SDS011;19894;48.452;11.494;2023-05-20T03:42:56;0.50;;;0.40;;
33563;SDS011;19894;48.452;11.494;2023-05-20T03:45:22;1.25;;;0.40;;
33563;SDS011;19894;48.452;11.494;2023-05-20T03:47:47;0.50;;;0.50;;
33563;SDS011;19894;48.452;11.494;2023-05-20T03:50:13;0.60;;;0.60;;
33563;SDS011;19894;48.452;11.494;2023-05-20T03:52:39;0.40;;;0.40;;
33563;SDS011;19894;48.452;11.494;2023-05-20T03:55:05;0.73;;;0.70;;
33563;SDS011;19894;48.452;11.494;2023-05-20T03:57:30;0.60;;;0.60;;
33563;SDS011;19894;48.452;11.494;2023-05-20T03:59:56;0.30;;;0.30;;
33563;SDS011;19894;48.452;11.494;2023-05-20T04:02:22;0.55;;;0.55;;
33563;SDS011;19894;48.452;11.494;2023-05-20T04:04:47;0.60;;;0.40;;
33563;SDS011;19894;48.452;11.494;2023-05-20T04:07:16;0.68;;;0.50;;
33563;SDS011;19894;48.452;11.494;2023-05-20T04:09:42;0.40;;;0.40;;
33563;SDS011;19894;48.452;11.494;2023-05-20T04:12:08;0.70;;;0.70;;
33563;SDS011;19894;48.452;11.494;2023-05-20T04:14:33;0.55;;;0.43;;
33563;SDS011;19894;48.452;11.494;2023-05-20T04:17:01;0.55;;;0.55;;
33563;SDS011;19894;48.452;11.494;2023-05-20T04:19:28;0.32;;;0.32;;
33563;SDS011;19894;48.452;11.494;2023-05-20T04:21:54;0.70;;;0.60;;
33563;SDS011;19894;48.452;11.494;2023-05-20T04:24:20;0.47;;;0.47;;
33563;SDS011;19894;48.452;11.494;2023-05-20T04:26:49;0.65;;;0.60;;
33563;SDS011;19894;48.452;11.494;2023-05-20T04:29:15;0.50;;;0.45;;
33563;SDS011;19894;48.452;11.494;2023-05-20T04:31:43;0.47;;;0.47;;
33563;SDS011;19894;48.452;11.494;2023-05-20T04:34:11;0.47;;;0.47;;
33563;SDS011;19894;48.452;11.494;2023-05-20T04:36:37;0.70;;;0.70;;
33563;SDS011;19894;48.452;11.494;2023-05-20T04:39:03;0.75;;;0.57;;
33563;SDS011;19894;48.452;11.494;2023-05-20T04:41:29;0.65;;;0.65;;
33563;SDS011;19894;48.452;11.494;2023-05-20T04:43:55;0.75;;;0.68;;
33563;SDS011;19894;48.452;11.494;2023-05-20T04:46:24;0.60;;;0.60;;
33563;SDS011;19894;48.452;11.494;2023-05-20T04:48:50;0.57;;;0.50;;
33563;SDS011;19894;48.452;11.494;2023-05-20T04:51:16;0.40;;;0.40;;
33563;SDS011;19894;48.452;11.494;2023-05-20T04:53:42;0.40;;;0.40;;
33563;SDS011;19894;48.452;11.494;2023-05-20T04:56:09;0.45;;;0.45;;
33563;SDS011;19894;48.452;11.494;2023-05-20T04:58:35;0.63;;;0.43;;
33563;SDS011;19894;48.452;11.494;2023-05-20T05:01:02;0.50;;;0.50;;
33563;SDS011;19894;48.452;11.494;2023-05-20T05:03:28;0.40;;;0.40;;
33563;SDS011;19894;48.452;11.494;2023-05-20T05:05:57;0.60;;;0.60;;
33563;SDS011;19894;48.452;11.494;2023-05-20T05:08:23;0.63;;;0.50;;
33563;SDS011;19894;48.452;11.494;2023-05-20T05:10:49;0.93;;;0.75;;
33563;SDS011;19894;48.452;11.494;2023-05-20T05:13:15;0.35;;;0.35;;
33563;SDS011;19894;48.452;11.494;2023-05-20T05:15:40;0.80;;;0.70;;
33563;SDS011;19894;48.452;11.494;2023-05-20T05:18:06;0.45;;;0.40;;
33563;SDS011;19894;48.452;11.494;2023-05-20T05:20:31;0.60;;;0.60;;
33563;SDS011;19894;48.452;11.494;2023-05-20T05:22:57;0.88;;;0.88;;
33563;SDS011;19894;48.452;11.494;2023-05-20T05:25:23;0.63;;;0.63;;
33563;SDS011;19894;48.452;11.494;2023-05-20T05:27:48;0.50;;;0.50;;
33563;SDS011;19894;48.452;11.494;2023-05-20T05:30:14;0.70;;;0.70;;
33563;SDS011;19894;48.452;11.494;2023-05-20T05:32:40;0.52;;;0.52;;
33563;SDS011;19894;48.452;11.494;2023-05-20T05:35:06;0.47;;;0.47;;
33563;SDS011;19894;48.452;11.494;2023-05-20T05:37:31;0.50;;;0.50;;
33563;SDS011;19894;48.452;11.494;2023-05-20T05:39:57;0.52;;;0.50;;
33563;SDS011;19894;48.452;11.494;2023-05-20T05:42:22;0.40;;;0.40;;
33563;SDS011;19894;48.452;11.494;2023-05-20T05:44:48;0.60;;;0.60;;
33563;SDS011;19894;48.452;11.494;2023-05-20T05:47:14;0.63;;;0.57;;
33563;SDS011;19894;48.452;11.494;2023-05-20T05:49:39;0.40;;;0.40;;
33563;SDS011;19894;48.452;11.494;2023-05-20T05:52:05;0.60;;;0.60;;
33563;SDS011;19894;48.452;11.494;2023-05-20T05:54:30;0.60;;;0.60;;
33563;SDS011;19894;48.452;11.494;2023-05-20T05:56:56;0.50;;;0.50;;
33563;SDS011;19894;48.452;11.494;2023-05-20T05:59:21;0.40;;;0.40;;
33563;SDS011;19894;48.452;11.494;2023-05-20T06:01:47;0.43;;;0.43;;
33563;SDS011;19894;48.452;11.494;2023-05-20T06:04:13;0.75;;;0.70;;
33563;SDS011;19894;48.452;11.494;2023-05-20T06:06:39;0.80;;;0.70;;
33563;SDS011;19894;48.452;11.494;2023-05-20T06:09:05;0.43;;;0.43;;
33563;SDS011;19894;48.452;11.494;2023-05-20T06:11:30;0.60;;;0.60;;
33563;SDS011;19894;48.452;11.494;2023-05-20T06:13:56;0.65;;;0.65;;
33563;SDS011;19894;48.452;11.494;2023-05-20T06:16:22;1.13;;;1.05;;
33563;SDS011;19894;48.452;11.494;2023-05-20T06:18:48;0.82;;;0.77;;
33563;SDS011;19894;48.452;11.494;2023-05-20T06:21:21;0.55;;;0.55;;
33563;SDS011;19894;48.452;11.494;2023-05-20T06:23:47;0.50;;;0.50;;
33563;SDS011;19894;48.452;11.494;2023-05-20T06:26:12;0.55;;;0.55;;
33563;SDS011;19894;48.452;11.494;2023-05-20T06:28:38;0.60;;;0.60;;
33563;SDS011;19894;48.452;11.494;2023-05-20T06:31:04;0.40;;;0.40;;
33563;SDS011;19894;48.452;11.494;2023-05-20T06:33:30;0.70;;;0.70;;
33563;SDS011;19894;48.452;11.494;2023-05-20T06:35:56;0.52;;;0.52;;
33563;SDS011;19894;48.452;11.494;2023-05-20T06:38:22;0.90;;;0.90;;
33563;SDS011;19894;48.452;11.494;2023-05-20T06:40:48;0.52;;;0.50;;
33563;SDS011;19894;48.452;11.494;2023-05-20T06:43:14;0.70;;;0.70;;
33563;SDS011;19894;48.452;11.494;2023-05-20T06:45:40;0.80;;;0.80;;
33563;SDS011;19894;48.452;11.494;2023-05-20T06:48:06;0.60;;;0.60;;
33563;SDS011;19894;48.452;11.494;2023-05-20T06:50:31;0.80;;;0.80;;
33563;SDS011;19894;48.452;11.494;2023-05-20T06:52:57;0.68;;;0.68;;
33563;SDS011;19894;48.452;11.494;2023-05-20T06:55:23;0.57;;;0.57;;
33563;SDS011;19894;48.452;11.494;2023-05-20T06:57:48;0.90;;;0.82;;
33563;SDS011;19894;48.452;11.494;2023-05-20T07:00:14;0.98;;;0.70;;
33563;SDS011;19894;48.452;11.494;2023-05-20T07:02:40;0.60;;;0.60;;
33563;SDS011;19894;48.452;11.494;2023-05-20T07:05:06;0.47;;;0.43;;
33563;SDS011;19894;48.452;11.494;2023-05-20T07:07:32;0.65;;;0.65;;
33563;SDS011;19894;48.452;11.494;2023-05-20T07:09:57;0.68;;;0.68;;
33563;SDS011;19894;48.452;11.494;2023-05-20T07:12:23;1.13;;;0.70;;
33563;SDS011;19894;48.452;11.494;2023-05-20T07:14:49;0.60;;;0.60;;
33563;SDS011;19894;48.452;11.494;2023-05-20T07:17:14;0.60;;;0.60;;
33563;SDS011;19894;48.452;11.494;2023-05-20T07:19:40;1.02;;;0.95;;
33563;SDS011;19894;48.452;11.494;2023-05-20T07:22:06;1.10;;;1.00;;
33563;SDS011;19894;48.452;11.494;2023-05-20T07:24:31;1.10;;;1.00;;
33563;SDS011;19894;48.452;11.494;2023-05-20T07:26:57;1.15;;;1.05;;
33563;SDS011;19894;48.452;11.494;2023-05-20T07:29:23;0.77;;;0.77;;
33563;SDS011;19894;48.452;11.494;2023-05-20T07:31:49;0.70;;;0.70;;
33563;SDS011;19894;48.452;11.494;2023-05-20T07:34:15;0.60;;;0.60;;
33563;SDS011;19894;48.452;11.494;2023-05-20T07:36:40;1.25;;;1.15;;
33563;SDS011;19894;48.452;11.494;2023-05-20T07:39:07;0.73;;;0.73;;
33563;SDS011;19894;48.452;11.494;2023-05-20T07:41:34;0.75;;;0.75;;
33563;SDS011;19894;48.452;11.494;2023-05-20T07:44:04;0.88;;;0.88;;
33563;SDS011;19894;48.452;11.494;2023-05-20T07:46:30;0.77;;;0.75;;
33563;SDS011;19894;48.452;11.494;2023-05-20T07:48:56;0.60;;;0.60;;
33563;SDS011;19894;48.452;11.494;2023-05-20T07:51:22;0.80;;;0.80;;
33563;SDS011;19894;48.452;11.494;2023-05-20T07:53:47;0.77;;;0.77;;
33563;SDS011;19894;48.452;11.494;2023-05-20T07:56:13;0.63;;;0.60;;
33563;SDS011;19894;48.452;11.494;2023-05-20T07:58:41;1.20;;;0.95;;
33563;SDS011;19894;48.452;11.494;2023-05-20T08:01:08;0.77;;;0.77;;
33563;SDS011;19894;48.452;11.494;2023-05-20T08:03:37;0.85;;;0.68;;
33563;SDS011;19894;48.452;11.494;2023-05-20T08:06:02;1.05;;;0.90;;
33563;SDS011;19894;48.452;11.494;2023-05-20T08:08:28;0.90;;;0.80;;
33563;SDS011;19894;48.452;11.494;2023-05-20T08:10:54;0.60;;;0.60;;
33563;SDS011;19894;48.452;11.494;2023-05-20T08:13:21;0.70;;;0.70;;
33563;SDS011;19894;48.452;11.494;2023-05-20T08:15:46;1.05;;;1.00;;
33563;SDS011;19894;48.452;11.494;2023-05-20T08:18:13;0.80;;;0.80;;
33563;SDS011;19894;48.452;11.494;2023-05-20T08:20:39;1.00;;;0.90;;
33563;SDS011;19894;48.452;11.494;2023-05-20T08:23:06;1.15;;;0.88;;
33563;SDS011;19894;48.452;11.494;2023-05-20T08:25:31;0.85;;;0.85;;
33563;SDS011;19894;48.452;11.494;2023-05-20T08:27:57;1.00;;;0.90;;
33563;SDS011;19894;48.452;11.494;2023-05-20T08:30:26;0.98;;;0.80;;
33563;SDS011;19894;48.452;11.494;2023-05-20T08:32:51;0.77;;;0.70;;
33563;SDS011;19894;48.452;11.494;2023-05-20T08:35:17;0.82;;;0.80;;
33563;SDS011;19894;48.452;11.494;2023-05-20T08:37:42;1.10;;;0.80;;
33563;SDS011;19894;48.452;11.494;2023-05-20T08:40:08;1.00;;;0.90;;
33563;SDS011;19894;48.452;11.494;2023-05-20T08:42:35;0.98;;;0.88;;
33563;SDS011;19894;48.452;11.494;2023-05-20T08:45:11;1.15;;;1.05;;
33563;SDS011;19894;48.452;11.494;2023-05-20T08:47:40;1.00;;;1.00;;
33563;SDS011;19894;48.452;11.494;2023-05-20T08:50:10;0.77;;;0.77;;
33563;SDS011;19894;48.452;11.494;2023-05-20T08:52:39;1.20;;;1.10;;
33563;SDS011;19894;48.452;11.494;2023-05-20T08:55:13;1.13;;;1.02;;
33563;SDS011;19894;48.452;11.494;2023-05-20T08:57:49;0.67;;;0.67;;
33563;SDS011;19894;48.452;11.494;2023-05-20T09:00:15;0.52;;;0.50;;
33563;SDS011;19894;48.452;11.494;2023-05-20T09:02:44;1.00;;;0.75;;
33563;SDS011;19894;48.452;11.494;2023-05-20T09:05:10;0.93;;;0.82;;
33563;SDS011;19894;48.452;11.494;2023-05-20T09:07:36;1.08;;;1.02;;
33563;SDS011;19894;48.452;11.494;2023-05-20T09:10:02;0.70;;;0.70;;
33563;SDS011;19894;48.452;11.494;2023-05-20T09:12:28;0.85;;;0.80;;
33563;SDS011;19894;48.452;11.494;2023-05-20T09:14:53;0.40;;;0.40;;
33563;SDS011;19894;48.452;11.494;2023-05-20T09:17:20;0.88;;;0.80;;
33563;SDS011;19894;48.452;11.494;2023-05-20T09:19:48;1.10;;;0.85;;
33563;SDS011;19894;48.452;11.494;2023-05-20T09:22:20;0.70;;;0.60;;
33563;SDS011;19894;48.452;11.494;2023-05-20T09:24:55;1.00;;;0.90;;
33563;SDS011;19894;48.452;11.494;2023-05-20T09:27:20;1.10;;;0.95;;
33563;SDS011;19894;48.452;11.494;2023-05-20T09:29:46;0.77;;;0.77;;
33563;SDS011;19894;48.452;11.494;2023-05-20T09:32:13;1.10;;;1.00;;
33563;SDS011;19894;48.452;11.494;2023-05-20T09:34:39;0.70;;;0.70;;
33563;SDS011;19894;48.452;11.494;2023-05-20T09:37:08;0.80;;;0.80;;
33563;SDS011;19894;48.452;11.494;2023-05-20T09:42:29;0.90;;;0.85;;
33563;SDS011;19894;48.452;11.494;2023-05-20T09:45:01;0.65;;;0.65;;
33563;SDS011;19894;48.452;11.494;2023-05-20T09:47:28;1.08;;;0.90;;
33563;SDS011;19894;48.452;11.494;2023-05-20T09:49:55;1.33;;;1.13;;
33563;SDS011;19894;48.452;11.494;2023-05-20T09:52:21;1.00;;;0.90;;
33563;SDS011;19894;48.452;11.494;2023-05-20T09:54:47;1.02;;;0.93;;
33563;SDS011;19894;48.452;11.494;2023-05-20T09:57:14;1.20;;;1.10;;
33563;SDS011;19894;48.452;11.494;2023-05-20T09:59:40;0.80;;;0.80;;
33563;SDS011;19894;48.452;11.494;2023-05-20T10:02:08;0.82;;;0.82;;
33563;SDS011;19894;48.452;11.494;2023-05-20T10:04:33;1.30;;;1.20;;
33563;SDS011;19894;48.452;11.494;2023-05-20T10:13:29;0.95;;;0.88;;
33563;SDS011;19894;48.452;11.494;2023-05-20T10:16:25;0.70;;;0.70;;
33563;SDS011;19894;48.452;11.494;2023-05-20T10:18:54;1.10;;;1.00;;
33563;SDS011;19894;48.452;11.494;2023-05-20T10:21:21;0.70;;;0.70;;
33563;SDS011;19894;48.452;11.494;2023-05-20T10:23:50;0.95;;;0.88;;
33563;SDS011;19894;48.452;11.494;2023-05-20T10:26:16;0.80;;;0.63;;
33563;SDS011;19894;48.452;11.494;2023-05-20T10:28:42;1.08;;;0.98;;
33563;SDS011;19894;48.452;11.494;2023-05-20T10:33:42;0.82;;;0.77;;
33563;SDS011;19894;48.452;11.494;2023-05-20T10:36:09;0.80;;;0.80;;
33563;SDS011;19894;48.452;11.494;2023-05-20T10:38:34;1.00;;;0.90;;
33563;SDS011;19894;48.452;11.494;2023-05-20T10:41:07;1.27;;;1.17;;
33563;SDS011;19894;48.452;11.494;2023-05-20T10:43:35;0.85;;;0.80;;
33563;SDS011;19894;48.452;11.494;2023-05-20T10:46:00;1.05;;;0.95;;
33563;SDS011;19894;48.452;11.494;2023-05-20T10:48:27;1.02;;;0.93;;
33563;SDS011;19894;48.452;11.494;2023-05-20T10:50:55;0.90;;;0.90;;
33563;SDS011;19894;48.452;11.494;2023-05-20T10:53:22;1.08;;;0.98;;
33563;SDS011;19894;48.452;11.494;2023-05-20T10:55:50;0.95;;;0.88;;
33563;SDS011;19894;48.452;11.494;2023-05-20T10:58:16;1.35;;;1.25;;
33563;SDS011;19894;48.452;11.494;2023-05-20T11:00:46;0.90;;;0.90;;
33563;SDS011;19894;48.452;11.494;2023-05-20T11:03:13;0.88;;;0.80;;
33563;SDS011;19894;48.452;11.494;2023-05-20T11:05:40;1.08;;;0.98;;
33563;SDS011;19894;48.452;11.494;2023-05-20T11:08:06;1.20;;;1.10;;
33563;SDS011;19894;48.452;11.494;2023-05-20T11:10:33;1.40;;;1.02;;
33563;SDS011;19894;48.452;11.494;2023-05-20T11:13:00;1.00;;;0.90;;
33563;SDS011;19894;48.452;11.494;2023-05-20T11:15:26;1.10;;;0.90;;
33563;SDS011;19894;48.452;11.494;2023-05-20T11:17:52;1.00;;;0.90;;
33563;SDS011;19894;48.452;11.494;2023-05-20T11:20:19;1.48;;;1.35;;
33563;SDS011;19894;48.452;11.494;2023-05-20T11:22:46;1.00;;;0.75;;
33563;SDS011;19894;48.452;11.494;2023-05-20T11:25:13;1.08;;;0.98;;
33563;SDS011;19894;48.452;11.494;2023-05-20T11:27:38;1.00;;;0.80;;
33563;SDS011;19894;48.452;11.494;2023-05-20T11:30:04;1.40;;;1.27;;
33563;SDS011;19894;48.452;11.494;2023-05-20T11:32:31;1.40;;;1.10;;
33563;SDS011;19894;48.452;11.494;2023-05-20T11:34:56;1.27;;;1.17;;
33563;SDS011;19894;48.452;11.494;2023-05-20T11:37:22;1.35;;;1.25;;
33563;SDS011;19894;48.452;11.494;2023-05-20T11:39:48;1.35;;;1.20;;
33563;SDS011;19894;48.452;11.494;2023-05-20T11:42:31;1.45;;;1.20;;
33563;SDS011;19894;48.452;11.494;2023-05-20T11:44:58;1.10;;;1.00;;
33563;SDS011;19894;48.452;11.494;2023-05-20T11:47:24;1.30;;;1.20;;
33563;SDS011;19894;48.452;11.494;2023-05-20T11:49:52;0.90;;;0.80;;
33563;SDS011;19894;48.452;11.494;2023-05-20T11:52:22;1.10;;;1.00;;
33563;SDS011;19894;48.452;11.494;2023-05-20T11:54:54;1.00;;;1.00;;
33563;SDS011;19894;48.452;11.494;2023-05-20T11:57:19;1.05;;;0.95;;
33563;SDS011;19894;48.452;11.494;2023-05-20T11:59:45;1.10;;;1.00;;
33563;SDS011;19894;48.452;11.494;2023-05-20T12:02:11;0.73;;;0.73;;
33563;SDS011;19894;48.452;11.494;2023-05-20T12:04:37;1.30;;;1.20;;
33563;SDS011;19894;48.452;11.494;2023-05-20T12:07:02;1.30;;;1.20;;
33563;SDS011;19894;48.452;11.494;2023-05-20T12:09:30;1.10;;;0.98;;
33563;SDS011;19894;48.452;11.494;2023-05-20T12:11:56;1.25;;;1.15;;
33563;SDS011;19894;48.452;11.494;2023-05-20T12:14:23;1.35;;;1.25;;
33563;SDS011;19894;48.452;11.494;2023-05-20T12:16:48;1.20;;;1.10;;
33563;SDS011;19894;48.452;11.494;2023-05-20T12:19:14;1.17;;;1.08;;
33563;SDS011;19894;48.452;11.494;2023-05-20T12:21:40;0.80;;;0.70;;
33563;SDS011;19894;48.452;11.494;2023-05-20T12:24:05;1.10;;;0.93;;
33563;SDS011;19894;48.452;11.494;2023-05-20T12:26:32;1.25;;;1.05;;
33563;SDS011;19894;48.452;11.494;2023-05-20T12:28:59;1.65;;;0.90;;
33563;SDS011;19894;48.452;11.494;2023-05-20T12:31:24;1.10;;;1.00;;
33563;SDS011;19894;48.452;11.494;2023-05-20T12:33:50;1.15;;;1.05;;
33563;SDS011;19894;48.452;11.494;2023-05-20T12:36:16;1.02;;;0.93;;
33563;SDS011;19894;48.452;11.494;2023-05-20T12:38:43;0.82;;;0.82;;
33563;SDS011;19894;48.452;11.494;2023-05-20T12:41:09;0.85;;;0.82;;
33563;SDS011;19894;48.452;11.494;2023-05-20T12:43:34;1.52;;;1.10;;
33563;SDS011;19894;48.452;11.494;2023-05-20T12:46:01;1.02;;;0.90;;
33563;SDS011;19894;48.452;11.494;2023-05-20T12:48:27;1.40;;;1.30;;
33563;SDS011;19894;48.452;11.494;2023-05-20T12:50:53;1.20;;;1.10;;
33563;SDS011;19894;48.452;11.494;2023-05-20T12:53:18;0.70;;;0.70;;
33563;SDS011;19894;48.452;11.494;2023-05-20T12:55:44;1.17;;;1.08;;
33563;SDS011;19894;48.452;11.494;2023-05-20T12:58:10;0.82;;;0.82;;
33563;SDS011;19894;48.452;11.494;2023-05-20T13:00:35;1.30;;;1.10;;
33563;SDS011;19894;48.452;11.494;2023-05-20T13:03:01;1.10;;;1.00;;
33563;SDS011;19894;48.452;11.494;2023-05-20T13:05:27;1.10;;;1.00;;
33563;SDS011;19894;48.452;11.494;2023-05-20T13:07:53;1.55;;;1.42;;
33563;SDS011;19894;48.452;11.494;2023-05-20T13:10:18;1.85;;;1.70;;
33563;SDS011;19894;48.452;11.494;2023-05-20T13:12:44;1.10;;;1.00;;
33563;SDS011;19894;48.452;11.494;2023-05-20T13:15:10;1.35;;;1.13;;
33563;SDS011;19894;48.452;11.494;2023-05-20T13:17:40;1.25;;;1.15;;
33563;SDS011;19894;48.452;11.494;2023-05-20T13:20:09;1.27;;;1.17;;
33563;SDS011;19894;48.452;11.494;2023-05-20T13:22:35;1.30;;;1.10;;
33563;SDS011;19894;48.452;11.494;2023-05-20T13:25:00;1.58;;;1.48;;
33563;SDS011;19894;48.452;11.494;2023-05-20T13:27:26;1.25;;;1.10;;
33563;SDS011;19894;48.452;11.494;2023-05-20T13:29:52;1.75;;;1.40;;
33563;SDS011;19894;48.452;11.494;2023-05-20T13:32:17;2.72;;;1.30;;
33563;SDS011;19894;48.452;11.494;2023-05-20T13:34:43;2.22;;;1.30;;
33563;SDS011;19894;48.452;11.494;2023-05-20T13:37:08;1.55;;;1.45;;
33563;SDS011;19894;48.452;11.494;2023-05-20T13:39:34;2.25;;;1.40;;
33563;SDS011;19894;48.452;11.494;2023-05-20T13:42:00;1.30;;;1.20;;
33563;SDS011;19894;48.452;11.494;2023-05-20T13:44:26;1.38;;;1.27;;
33563;SDS011;19894;48.452;11.494;2023-05-20T13:46:51;1.48;;;1.33;;
33563;SDS011;19894;48.452;11.494;2023-05-20T13:49:17;1.83;;;1.73;;
33563;SDS011;19894;48.452;11.494;2023-05-20T13:51:42;2.63;;;1.38;;
33563;SDS011;19894;48.452;11.494;2023-05-20T13:54:08;1.50;;;1.40;;
33563;SDS011;19894;48.452;11.494;2023-05-20T13:56:33;1.80;;;1.50;;
33563;SDS011;19894;48.452;11.494;2023-05-20T13:58:59;1.45;;;1.27;;
33563;SDS011;19894;48.452;11.494;2023-05-20T14:01:25;1.50;;;1.30;;
33563;SDS011;19894;48.452;11.494;2023-05-20T14:03:51;1.55;;;1.45;;
33563;SDS011;19894;48.452;11.494;2023-05-20T14:06:17;1.67;;;1.58;;
33563;SDS011;19894;48.452;11.494;2023-05-20T14:08:43;1.27;;;1.17;;
33563;SDS011;19894;48.452;11.494;2023-05-20T14:11:09;1.35;;;1.25;;
33563;SDS011;19894;48.452;11.494;2023-05-20T14:13:35;1.35;;;1.25;;
33563;SDS011;19894;48.452;11.494;2023-05-20T14:16:01;2.08;;;1.52;;
33563;SDS011;19894;48.452;11.494;2023-05-20T14:18:26;1.50;;;1.35;;
33563;SDS011;19894;48.452;11.494;2023-05-20T14:20:52;1.40;;;1.27;;
33563;SDS011;19894;48.452;11.494;2023-05-20T14:23:17;1.40;;;1.30;;
33563;SDS011;19894;48.452;11.494;2023-05-20T14:25:43;1.60;;;1.42;;
33563;SDS011;19894;48.452;11.494;2023-05-20T14:28:08;2.30;;;2.10;;
33563;SDS011;19894;48.452;11.494;2023-05-20T14:30:34;2.25;;;1.40;;
33563;SDS011;19894;48.452;11.494;2023-05-20T14:33:00;1.38;;;1.27;;
33563;SDS011;19894;48.452;11.494;2023-05-20T14:35:25;1.58;;;1.40;;
33563;SDS011;19894;48.452;11.494;2023-05-20T14:37:51;2.00;;;1.48;;
33563;SDS011;19894;48.452;11.494;2023-05-20T14:40:17;1.40;;;1.30;;